createdAt,value
2017-07-03T00:00:25.262Z,15.51
2017-07-03T00:01:05.840Z,15.47
2017-07-03T00:01:46.452Z,15.44
2017-07-03T00:02:27.048Z,15.47
2017-07-03T00:03:07.636Z,15.47
2017-07-03T00:03:48.205Z,15.51
2017-07-03T00:04:28.778Z,15.39
2017-07-03T00:05:09.383Z,15.46
2017-07-03T00:05:49.945Z,15.39
2017-07-03T00:06:30.520Z,15.51
2017-07-03T00:07:11.107Z,15.51
2017-07-03T00:07:51.707Z,15.37
2017-07-03T00:08:32.274Z,15.36
2017-07-03T00:09:12.878Z,15.31
2017-07-03T00:09:53.442Z,15.39
2017-07-03T00:10:34.011Z,15.35
2017-07-03T00:11:14.619Z,15.44
2017-07-03T00:11:55.409Z,15.35
2017-07-03T00:12:35.998Z,15.42
2017-07-03T00:13:16.581Z,15.46
2017-07-03T00:13:57.204Z,15.47
2017-07-03T00:14:37.729Z,15.44
2017-07-03T00:15:18.302Z,15.35
2017-07-03T00:15:58.876Z,15.44
2017-07-03T00:16:39.486Z,15.43
2017-07-03T00:17:20.039Z,15.42
2017-07-03T00:18:00.745Z,15.46
2017-07-03T00:18:41.330Z,15.29
2017-07-03T00:19:21.980Z,15.39
2017-07-03T00:20:02.736Z,15.49
2017-07-03T00:20:43.347Z,15.35
2017-07-03T00:21:23.911Z,15.29
2017-07-03T00:22:04.479Z,15.39
2017-07-03T00:22:45.051Z,15.39
2017-07-03T00:23:25.845Z,15.39
2017-07-03T00:24:06.491Z,15.37
2017-07-03T00:24:47.055Z,15.4
2017-07-03T00:25:27.632Z,15.29
2017-07-03T00:26:08.231Z,15.22
2017-07-03T00:26:49.012Z,15.37
2017-07-03T00:27:29.662Z,15.37
2017-07-03T00:28:10.251Z,15.27
2017-07-03T00:28:50.828Z,15.28
2017-07-03T00:29:31.401Z,15.25
2017-07-03T00:30:11.988Z,15.27
2017-07-03T00:30:52.638Z,15.25
2017-07-03T00:31:33.197Z,15.29
2017-07-03T00:32:13.790Z,15.29
2017-07-03T00:32:54.380Z,15.33
2017-07-03T00:33:34.948Z,15.25
2017-07-03T00:34:15.521Z,15.29
2017-07-03T00:34:56.098Z,15.27
2017-07-03T00:35:36.683Z,15.33
2017-07-03T00:36:17.297Z,15.29
2017-07-03T00:36:57.888Z,15.33
2017-07-03T00:37:38.512Z,15.27
2017-07-03T00:38:19.095Z,15.28
2017-07-03T00:38:59.955Z,15.24
2017-07-03T00:39:40.598Z,15.29
2017-07-03T00:40:21.194Z,15.31
2017-07-03T00:41:01.774Z,15.29
2017-07-03T00:41:42.530Z,15.29
2017-07-03T00:42:23.097Z,15.31
2017-07-03T00:43:03.686Z,15.22
2017-07-03T00:43:44.257Z,15.29
2017-07-03T00:44:24.835Z,15.25
2017-07-03T00:45:05.435Z,15.28
2017-07-03T00:45:46.045Z,15.28
2017-07-03T00:46:26.883Z,15.27
2017-07-03T00:47:07.491Z,15.27
2017-07-03T00:47:48.152Z,15.25
2017-07-03T00:48:28.717Z,15.27
2017-07-03T00:49:09.315Z,15.24
2017-07-03T00:49:49.915Z,15.25
2017-07-03T00:50:30.469Z,15.21
2017-07-03T00:51:11.036Z,15.29
2017-07-03T00:51:51.785Z,15.28
2017-07-03T00:52:32.325Z,15.18
2017-07-03T00:53:12.892Z,15.17
2017-07-03T00:53:53.480Z,15.31
2017-07-03T00:54:34.056Z,15.27
2017-07-03T00:55:14.831Z,15.24
2017-07-03T00:55:55.405Z,15.15
2017-07-03T00:56:36.857Z,15.18
2017-07-03T00:57:17.467Z,15.22
2017-07-03T00:57:58.015Z,15.15
2017-07-03T00:58:38.592Z,15.24
2017-07-03T00:59:19.180Z,15.06
2017-07-03T00:59:59.772Z,15.09
2017-07-03T01:00:40.342Z,15.09
2017-07-03T01:01:20.912Z,15.11
2017-07-03T01:02:01.482Z,15.15
2017-07-03T01:02:42.982Z,15.1
2017-07-03T01:03:23.558Z,15.1
2017-07-03T01:04:04.272Z,15.06
2017-07-03T01:04:44.871Z,15.07
2017-07-03T01:05:25.454Z,15.07
2017-07-03T01:06:06.017Z,14.97
2017-07-03T01:06:46.615Z,14.92
2017-07-03T01:07:27.200Z,14.96
2017-07-03T01:08:07.774Z,15.04
2017-07-03T01:08:48.366Z,14.94
2017-07-03T01:09:28.939Z,14.97
2017-07-03T01:10:09.499Z,14.99
2017-07-03T01:10:50.065Z,14.96
2017-07-03T01:11:30.635Z,14.99
2017-07-03T01:12:11.234Z,15
2017-07-03T01:12:51.820Z,14.92
2017-07-03T01:13:32.390Z,14.91
2017-07-03T01:14:12.971Z,14.89
2017-07-03T01:14:53.552Z,14.94
2017-07-03T01:15:34.127Z,14.91
2017-07-03T01:16:14.754Z,14.81
2017-07-03T01:16:55.333Z,14.89
2017-07-03T01:17:35.948Z,14.96
2017-07-03T01:18:16.552Z,14.85
2017-07-03T01:18:57.091Z,14.79
2017-07-03T01:19:37.680Z,14.85
2017-07-03T01:20:18.258Z,14.88
2017-07-03T01:20:58.829Z,14.92
2017-07-03T01:21:39.399Z,14.88
2017-07-03T01:22:19.986Z,14.86
2017-07-03T01:23:00.574Z,14.89
2017-07-03T01:23:41.148Z,14.82
2017-07-03T01:24:21.777Z,14.82
2017-07-03T01:25:02.351Z,14.81
2017-07-03T01:25:42.921Z,14.84
2017-07-03T01:26:23.500Z,14.84
2017-07-03T01:27:04.073Z,14.78
2017-07-03T01:27:44.642Z,14.81
2017-07-03T01:28:25.221Z,14.68
2017-07-03T01:29:05.803Z,14.79
2017-07-03T01:29:46.365Z,14.69
2017-07-03T01:30:26.945Z,14.68
2017-07-03T01:31:07.534Z,14.7
2017-07-03T01:31:48.112Z,14.69
2017-07-03T01:32:28.705Z,14.63
2017-07-03T01:33:09.309Z,14.68
2017-07-03T01:33:49.872Z,14.68
2017-07-03T01:34:30.449Z,14.66
2017-07-03T01:35:11.053Z,14.62
2017-07-03T01:35:51.656Z,14.77
2017-07-03T01:36:32.242Z,14.68
2017-07-03T01:37:12.810Z,14.65
2017-07-03T01:37:53.382Z,14.77
2017-07-03T01:38:33.965Z,14.77
2017-07-03T01:39:14.623Z,14.68
2017-07-03T01:39:55.206Z,14.7
2017-07-03T01:40:35.793Z,14.63
2017-07-03T01:41:16.365Z,14.7
2017-07-03T01:41:56.952Z,14.7
2017-07-03T01:42:37.536Z,14.68
2017-07-03T01:43:18.113Z,14.66
2017-07-03T01:43:58.685Z,14.72
2017-07-03T01:44:39.276Z,14.72
2017-07-03T01:45:19.890Z,14.7
2017-07-03T01:46:00.457Z,14.68
2017-07-03T01:46:41.031Z,14.66
2017-07-03T01:47:21.609Z,14.68
2017-07-03T01:48:02.194Z,14.69
2017-07-03T01:48:42.764Z,14.54
2017-07-03T01:49:23.350Z,14.66
2017-07-03T01:50:03.932Z,14.7
2017-07-03T01:50:44.515Z,14.68
2017-07-03T01:51:25.064Z,14.59
2017-07-03T01:52:05.645Z,14.69
2017-07-03T01:52:46.237Z,14.68
2017-07-03T01:53:26.805Z,14.63
2017-07-03T01:54:07.398Z,14.55
2017-07-03T01:54:47.968Z,14.58
2017-07-03T01:55:28.536Z,14.59
2017-07-03T01:56:09.117Z,14.58
2017-07-03T01:56:49.690Z,14.62
2017-07-03T01:57:30.274Z,14.59
2017-07-03T01:58:10.851Z,14.63
2017-07-03T01:58:51.434Z,14.6
2017-07-03T01:59:32.011Z,14.53
2017-07-03T02:00:12.635Z,14.5
2017-07-03T02:00:53.204Z,14.48
2017-07-03T02:01:33.844Z,14.55
2017-07-03T02:02:14.414Z,14.53
2017-07-03T02:02:54.974Z,14.53
2017-07-03T02:03:35.560Z,14.53
2017-07-03T02:04:16.141Z,14.54
2017-07-03T02:04:56.705Z,14.55
2017-07-03T02:05:37.284Z,14.48
2017-07-03T02:06:17.853Z,14.44
2017-07-03T02:06:58.418Z,14.36
2017-07-03T02:07:38.993Z,14.4
2017-07-03T02:08:19.550Z,14.47
2017-07-03T02:09:00.144Z,14.35
2017-07-03T02:09:40.695Z,14.4
2017-07-03T02:10:21.305Z,14.44
2017-07-03T02:11:01.874Z,14.37
2017-07-03T02:11:42.441Z,14.36
2017-07-03T02:12:23.018Z,14.47
2017-07-03T02:13:03.615Z,14.47
2017-07-03T02:13:44.187Z,14.53
2017-07-03T02:14:24.749Z,14.47
2017-07-03T02:15:05.315Z,14.55
2017-07-03T02:15:45.891Z,14.43
2017-07-03T02:16:26.493Z,14.37
2017-07-03T02:17:07.059Z,14.51
2017-07-03T02:17:47.638Z,14.33
2017-07-03T02:18:28.248Z,14.41
2017-07-03T02:19:08.819Z,14.41
2017-07-03T02:19:49.398Z,14.33
2017-07-03T02:20:29.956Z,14.37
2017-07-03T02:21:10.536Z,14.36
2017-07-03T02:21:51.122Z,14.36
2017-07-03T02:22:31.686Z,14.33
2017-07-03T02:23:12.269Z,14.4
2017-07-03T02:23:52.874Z,14.36
2017-07-03T02:24:33.441Z,14.33
2017-07-03T02:25:14.057Z,14.29
2017-07-03T02:25:54.672Z,14.33
2017-07-03T02:26:35.278Z,14.32
2017-07-03T02:27:15.848Z,14.22
2017-07-03T02:27:56.442Z,14.3
2017-07-03T02:28:37.020Z,14.23
2017-07-03T02:29:17.588Z,14.22
2017-07-03T02:29:58.175Z,14.18
2017-07-03T02:30:38.738Z,14.26
2017-07-03T02:31:19.290Z,14.29
2017-07-03T02:31:59.879Z,14.25
2017-07-03T02:32:40.441Z,14.29
2017-07-03T02:33:21.029Z,14.25
2017-07-03T02:34:01.629Z,14.25
2017-07-03T02:34:42.243Z,14.22
2017-07-03T02:35:22.844Z,14.26
2017-07-03T02:36:03.419Z,14.22
2017-07-03T02:36:43.998Z,14.25
2017-07-03T02:37:24.595Z,14.18
2017-07-03T02:38:05.151Z,14.23
2017-07-03T02:38:45.715Z,14.29
2017-07-03T02:39:26.304Z,14.3
2017-07-03T02:40:06.906Z,14.23
2017-07-03T02:40:47.455Z,14.23
2017-07-03T02:41:28.026Z,14.32
2017-07-03T02:42:08.591Z,14.28
2017-07-03T02:42:49.162Z,14.29
2017-07-03T02:43:29.728Z,14.33
2017-07-03T02:44:10.323Z,14.29
2017-07-03T02:44:50.938Z,14.22
2017-07-03T02:45:31.529Z,14.28
2017-07-03T02:46:12.107Z,14.26
2017-07-03T02:46:52.701Z,14.32
2017-07-03T02:47:33.271Z,14.28
2017-07-03T02:48:13.861Z,14.23
2017-07-03T02:48:54.517Z,14.29
2017-07-03T02:49:35.128Z,14.25
2017-07-03T02:50:15.718Z,14.23
2017-07-03T02:50:56.319Z,14.29
2017-07-03T02:51:36.913Z,14.3
2017-07-03T02:52:17.476Z,14.2
2017-07-03T02:52:58.041Z,14.26
2017-07-03T02:53:38.607Z,14.29
2017-07-03T02:54:19.194Z,14.26
2017-07-03T02:54:59.764Z,14.25
2017-07-03T02:55:40.333Z,14.29
2017-07-03T02:56:20.921Z,14.3
2017-07-03T02:57:01.505Z,14.2
2017-07-03T02:57:42.097Z,14.22
2017-07-03T02:58:22.659Z,14.26
2017-07-03T02:59:03.215Z,14.22
2017-07-03T02:59:43.811Z,14.18
2017-07-03T03:00:24.391Z,14.2
2017-07-03T03:01:04.977Z,14.26
2017-07-03T03:01:45.564Z,14.18
2017-07-03T03:02:26.152Z,14.17
2017-07-03T03:03:06.725Z,14.29
2017-07-03T03:03:47.306Z,14.28
2017-07-03T03:04:27.890Z,14.22
2017-07-03T03:05:08.499Z,14.23
2017-07-03T03:05:49.131Z,14.26
2017-07-03T03:06:29.743Z,14.22
2017-07-03T03:07:10.325Z,14.17
2017-07-03T03:07:50.897Z,14.25
2017-07-03T03:08:31.460Z,14.2
2017-07-03T03:09:12.086Z,14.2
2017-07-03T03:09:52.681Z,14.22
2017-07-03T03:10:33.284Z,14.25
2017-07-03T03:11:13.882Z,14.2
2017-07-03T03:11:54.468Z,14.26
2017-07-03T03:12:35.042Z,14.2
2017-07-03T03:13:15.633Z,14.23
2017-07-03T03:13:56.223Z,14.29
2017-07-03T03:14:36.799Z,14.22
2017-07-03T03:15:17.362Z,14.32
2017-07-03T03:15:57.936Z,14.26
2017-07-03T03:16:38.536Z,14.23
2017-07-03T03:17:19.108Z,14.29
2017-07-03T03:17:59.717Z,14.3
2017-07-03T03:18:40.293Z,14.26
2017-07-03T03:19:20.872Z,14.26
2017-07-03T03:20:01.434Z,14.32
2017-07-03T03:20:42.026Z,14.26
2017-07-03T03:21:22.606Z,14.26
2017-07-03T03:22:03.169Z,14.18
2017-07-03T03:22:43.753Z,14.17
2017-07-03T03:23:24.337Z,14.23
2017-07-03T03:24:04.923Z,14.22
2017-07-03T03:24:45.510Z,14.2
2017-07-03T03:25:26.075Z,14.25
2017-07-03T03:26:06.651Z,14.26
2017-07-03T03:26:47.234Z,14.28
2017-07-03T03:27:27.853Z,14.28
2017-07-03T03:28:08.441Z,14.3
2017-07-03T03:28:49.009Z,14.25
2017-07-03T03:29:29.575Z,14.25
2017-07-03T03:30:10.162Z,14.2
2017-07-03T03:30:50.745Z,14.25
2017-07-03T03:31:31.317Z,14.29
2017-07-03T03:32:11.896Z,14.18
2017-07-03T03:32:52.453Z,14.28
2017-07-03T03:33:33.024Z,14.26
2017-07-03T03:34:13.594Z,14.26
2017-07-03T03:34:54.194Z,14.26
2017-07-03T03:35:34.769Z,14.28
2017-07-03T03:36:15.345Z,14.22
2017-07-03T03:36:55.904Z,14.26
2017-07-03T03:37:36.536Z,14.28
2017-07-03T03:38:17.151Z,14.26
2017-07-03T03:38:57.743Z,14.32
2017-07-03T03:39:38.317Z,14.25
2017-07-03T03:40:18.920Z,14.18
2017-07-03T03:40:59.496Z,14.3
2017-07-03T03:41:40.071Z,14.25
2017-07-03T03:42:20.638Z,14.33
2017-07-03T03:43:01.209Z,14.32
2017-07-03T03:43:41.781Z,14.35
2017-07-03T03:44:22.353Z,14.3
2017-07-03T03:45:02.940Z,14.32
2017-07-03T03:45:43.526Z,14.3
2017-07-03T03:46:24.107Z,14.3
2017-07-03T03:47:04.698Z,14.32
2017-07-03T03:47:45.314Z,14.22
2017-07-03T03:48:25.921Z,14.23
2017-07-03T03:49:06.489Z,14.25
2017-07-03T03:49:47.053Z,14.35
2017-07-03T03:50:27.618Z,14.32
2017-07-03T03:51:08.187Z,14.2
2017-07-03T03:51:48.753Z,14.22
2017-07-03T03:52:29.344Z,14.26
2017-07-03T03:53:09.925Z,14.32
2017-07-03T03:53:50.498Z,14.28
2017-07-03T03:54:31.081Z,14.28
2017-07-03T03:55:11.655Z,14.28
2017-07-03T03:55:52.228Z,14.37
2017-07-03T03:56:32.803Z,14.32
2017-07-03T03:57:13.376Z,14.33
2017-07-03T03:57:53.947Z,14.3
2017-07-03T03:58:34.506Z,14.3
2017-07-03T03:59:15.076Z,14.32
2017-07-03T03:59:55.641Z,14.35
2017-07-03T04:00:36.208Z,14.35
2017-07-03T04:01:16.785Z,14.36
2017-07-03T04:01:57.358Z,14.4
2017-07-03T04:02:37.974Z,14.4
2017-07-03T04:03:18.587Z,14.41
2017-07-03T04:03:59.155Z,14.41
2017-07-03T04:04:39.767Z,14.4
2017-07-03T04:05:20.367Z,14.35
2017-07-03T04:06:00.930Z,14.37
2017-07-03T04:06:41.500Z,14.35
2017-07-03T04:07:22.090Z,14.4
2017-07-03T04:08:02.679Z,14.36
2017-07-03T04:08:43.276Z,14.4
2017-07-03T04:09:23.846Z,14.36
2017-07-03T04:10:04.424Z,14.43
2017-07-03T04:10:44.994Z,14.3
2017-07-03T04:11:25.564Z,14.37
2017-07-03T04:12:06.183Z,14.4
2017-07-03T04:12:46.746Z,14.48
2017-07-03T04:13:27.314Z,14.33
2017-07-03T04:14:07.923Z,14.44
2017-07-03T04:14:48.481Z,14.37
2017-07-03T04:15:29.043Z,14.37
2017-07-03T04:16:09.611Z,14.48
2017-07-03T04:16:50.197Z,14.33
2017-07-03T04:17:30.770Z,14.37
2017-07-03T04:18:11.351Z,14.41
2017-07-03T04:18:51.959Z,14.35
2017-07-03T04:19:32.516Z,14.37
2017-07-03T04:20:13.137Z,14.4
2017-07-03T04:20:53.632Z,14.45
2017-07-03T04:21:34.205Z,14.45
2017-07-03T04:22:14.823Z,14.37
2017-07-03T04:22:55.408Z,14.37
2017-07-03T04:23:36.026Z,14.43
2017-07-03T04:24:16.592Z,14.41
2017-07-03T04:24:57.245Z,14.5
2017-07-03T04:25:37.890Z,14.4
2017-07-03T04:26:18.481Z,14.53
2017-07-03T04:26:59.086Z,14.53
2017-07-03T04:27:39.656Z,14.58
2017-07-03T04:28:20.247Z,14.54
2017-07-03T04:29:00.837Z,14.51
2017-07-03T04:29:41.386Z,14.5
2017-07-03T04:30:21.984Z,14.58
2017-07-03T04:31:02.559Z,14.58
2017-07-03T04:31:43.138Z,14.53
2017-07-03T04:32:23.715Z,14.48
2017-07-03T04:33:04.451Z,14.54
2017-07-03T04:33:45.028Z,14.53
2017-07-03T04:34:25.600Z,14.48
2017-07-03T04:35:06.216Z,14.59
2017-07-03T04:35:46.795Z,14.54
2017-07-03T04:36:27.405Z,14.5
2017-07-03T04:37:07.991Z,14.47
2017-07-03T04:37:48.588Z,14.44
2017-07-03T04:38:29.163Z,14.6
2017-07-03T04:39:09.750Z,14.48
2017-07-03T04:39:50.342Z,14.5
2017-07-03T04:40:30.952Z,14.53
2017-07-03T04:41:11.554Z,14.53
2017-07-03T04:41:52.155Z,14.53
2017-07-03T04:42:32.729Z,14.58
2017-07-03T04:43:13.314Z,14.59
2017-07-03T04:43:53.908Z,14.55
2017-07-03T04:44:34.495Z,14.63
2017-07-03T04:45:15.074Z,14.55
2017-07-03T04:45:55.678Z,14.65
2017-07-03T04:46:36.248Z,14.58
2017-07-03T04:47:16.832Z,14.63
2017-07-03T04:47:57.435Z,14.6
2017-07-03T04:48:38.001Z,14.58
2017-07-03T04:49:18.587Z,14.6
2017-07-03T04:49:59.214Z,14.55
2017-07-03T04:50:39.779Z,14.6
2017-07-03T04:51:20.349Z,14.6
2017-07-03T04:52:00.915Z,14.6
2017-07-03T04:52:41.525Z,14.55
2017-07-03T04:53:22.093Z,14.6
2017-07-03T04:54:02.658Z,14.63
2017-07-03T04:54:43.224Z,14.58
2017-07-03T04:55:23.790Z,14.55
2017-07-03T04:56:04.375Z,14.7
2017-07-03T04:56:44.955Z,14.6
2017-07-03T04:57:25.578Z,14.68
2017-07-03T04:58:06.127Z,14.65
2017-07-03T04:58:46.704Z,14.68
2017-07-03T04:59:27.273Z,14.72
2017-07-03T05:00:07.839Z,14.68
2017-07-03T05:00:48.434Z,14.69
2017-07-03T05:01:29.021Z,14.7
2017-07-03T05:02:09.621Z,14.68
2017-07-03T05:02:50.229Z,14.66
2017-07-03T05:03:30.762Z,14.69
2017-07-03T05:04:11.338Z,14.69
2017-07-03T05:04:51.944Z,14.66
2017-07-03T05:05:32.520Z,14.66
2017-07-03T05:06:13.131Z,14.65
2017-07-03T05:06:53.712Z,14.69
2017-07-03T05:07:34.298Z,14.69
2017-07-03T05:08:14.883Z,14.73
2017-07-03T05:08:55.467Z,14.79
2017-07-03T05:09:36.028Z,14.79
2017-07-03T05:10:16.598Z,14.81
2017-07-03T05:10:57.169Z,14.82
2017-07-03T05:11:37.754Z,14.79
2017-07-03T05:12:18.322Z,14.82
2017-07-03T05:12:58.888Z,14.88
2017-07-03T05:13:39.521Z,14.88
2017-07-03T05:14:20.093Z,14.88
2017-07-03T05:15:00.647Z,14.92
2017-07-03T05:15:41.229Z,14.89
2017-07-03T05:16:21.798Z,14.96
2017-07-03T05:17:02.389Z,15.09
2017-07-03T05:17:42.960Z,15.09
2017-07-03T05:18:23.519Z,15.27
2017-07-03T05:19:04.119Z,15.24
2017-07-03T05:19:44.697Z,15.24
2017-07-03T05:20:25.268Z,15.39
2017-07-03T05:21:05.874Z,15.39
2017-07-03T05:21:46.406Z,15.37
2017-07-03T05:22:26.996Z,15.39
2017-07-03T05:23:07.593Z,15.33
2017-07-03T05:23:48.193Z,15.43
2017-07-03T05:24:28.764Z,15.33
2017-07-03T05:25:09.330Z,15.35
2017-07-03T05:25:49.900Z,15.46
2017-07-03T05:26:30.522Z,15.44
2017-07-03T05:27:11.118Z,15.47
2017-07-03T05:27:51.697Z,15.47
2017-07-03T05:28:32.269Z,15.52
2017-07-03T05:29:12.836Z,15.61
2017-07-03T05:29:53.430Z,15.61
2017-07-03T05:30:34.003Z,15.82
2017-07-03T05:31:14.578Z,15.83
2017-07-03T05:31:55.204Z,15.83
2017-07-03T05:32:35.781Z,15.91
2017-07-03T05:33:16.359Z,16.01
2017-07-03T05:33:56.996Z,16.08
2017-07-03T05:34:37.564Z,16.23
2017-07-03T05:35:18.133Z,16.31
2017-07-03T05:35:58.716Z,16.39
2017-07-03T05:36:39.323Z,16.43
2017-07-03T05:37:19.886Z,16.64
2017-07-03T05:38:00.476Z,16.74
2017-07-03T05:38:41.057Z,16.78
2017-07-03T05:39:21.655Z,16.99
2017-07-03T05:40:02.234Z,17.26
2017-07-03T05:40:42.817Z,17.31
2017-07-03T05:41:23.400Z,17.45
2017-07-03T05:42:03.989Z,17.57
2017-07-03T05:42:44.572Z,17.74
2017-07-03T05:43:25.155Z,17.9
2017-07-03T05:44:05.746Z,18.15
2017-07-03T05:44:46.320Z,18.18
2017-07-03T05:45:26.902Z,18.33
2017-07-03T05:46:07.517Z,18.37
2017-07-03T05:46:48.108Z,18.49
2017-07-03T05:47:28.695Z,18.6
2017-07-03T05:48:09.287Z,18.68
2017-07-03T05:48:49.895Z,18.74
2017-07-03T05:49:30.496Z,18.8
2017-07-03T05:50:11.174Z,18.95
2017-07-03T05:50:51.775Z,19.07
2017-07-03T05:51:32.356Z,19.16
2017-07-03T05:52:12.931Z,19.27
2017-07-03T05:52:53.518Z,19.37
2017-07-03T05:53:34.121Z,19.31
2017-07-03T05:54:14.741Z,19.36
2017-07-03T05:54:55.337Z,19.4
2017-07-03T05:55:35.961Z,19.41
2017-07-03T05:56:16.579Z,19.4
2017-07-03T05:56:57.172Z,19.26
2017-07-03T05:57:37.778Z,19.21
2017-07-03T05:58:18.357Z,19.15
2017-07-03T05:58:58.963Z,19.14
2017-07-03T05:59:39.590Z,19.16
2017-07-03T06:00:20.147Z,19.15
2017-07-03T06:01:00.724Z,19.04
2017-07-03T06:01:41.342Z,19.04
2017-07-03T06:02:21.930Z,19.04
2017-07-03T06:03:02.517Z,18.96
2017-07-03T06:03:43.106Z,18.98
2017-07-03T06:04:23.686Z,18.96
2017-07-03T06:05:04.267Z,19.02
2017-07-03T06:05:44.856Z,19.11
2017-07-03T06:06:25.438Z,19.15
2017-07-03T06:07:06.024Z,19.27
2017-07-03T06:07:46.607Z,19.29
2017-07-03T06:08:27.206Z,19.44
2017-07-03T06:09:07.782Z,19.59
2017-07-03T06:09:48.384Z,19.71
2017-07-03T06:10:28.974Z,19.73
2017-07-03T06:11:09.553Z,19.95
2017-07-03T06:11:50.128Z,19.95
2017-07-03T06:12:30.709Z,20.14
2017-07-03T06:13:11.280Z,20.21
2017-07-03T06:13:51.875Z,20.32
2017-07-03T06:14:32.469Z,20.37
2017-07-03T06:15:13.035Z,20.28
2017-07-03T06:15:53.628Z,20.26
2017-07-03T06:16:34.239Z,20.32
2017-07-03T06:17:14.836Z,20.37
2017-07-03T06:17:55.401Z,20.5
2017-07-03T06:18:35.995Z,20.44
2017-07-03T06:19:16.591Z,20.51
2017-07-03T06:19:57.250Z,20.56
2017-07-03T06:20:37.849Z,20.67
2017-07-03T06:21:18.438Z,20.75
2017-07-03T06:21:59.027Z,20.81
2017-07-03T06:22:39.608Z,20.81
2017-07-03T06:23:20.210Z,20.96
2017-07-03T06:24:00.801Z,20.97
2017-07-03T06:24:41.434Z,20.96
2017-07-03T06:25:22.013Z,20.97
2017-07-03T06:26:02.579Z,21
2017-07-03T06:26:43.170Z,20.9
2017-07-03T06:27:23.806Z,20.96
2017-07-03T06:28:04.381Z,21.06
2017-07-03T06:28:44.990Z,21.09
2017-07-03T06:29:25.591Z,21
2017-07-03T06:30:06.175Z,21.09
2017-07-03T06:30:46.790Z,21.17
2017-07-03T06:31:27.380Z,21.2
2017-07-03T06:32:07.977Z,21.2
2017-07-03T06:32:48.546Z,21.18
2017-07-03T06:33:29.151Z,21.25
2017-07-03T06:34:09.743Z,21.25
2017-07-03T06:34:50.340Z,21.42
2017-07-03T06:35:30.943Z,21.5
2017-07-03T06:36:11.572Z,21.46
2017-07-03T06:36:52.363Z,21.54
2017-07-03T06:37:33.065Z,21.67
2017-07-03T06:38:13.691Z,21.64
2017-07-03T06:38:54.269Z,21.76
2017-07-03T06:39:34.880Z,21.76
2017-07-03T06:40:15.459Z,21.77
2017-07-03T06:40:56.082Z,21.88
2017-07-03T06:41:36.769Z,21.92
2017-07-03T06:42:17.378Z,21.92
2017-07-03T06:42:58.038Z,21.92
2017-07-03T06:43:38.640Z,21.95
2017-07-03T06:44:19.256Z,21.83
2017-07-03T06:44:59.860Z,21.92
2017-07-03T06:45:40.455Z,21.77
2017-07-03T06:46:21.044Z,21.73
2017-07-03T06:47:01.655Z,21.61
2017-07-03T06:47:42.252Z,21.54
2017-07-03T06:48:22.840Z,21.43
2017-07-03T06:49:03.435Z,21.4
2017-07-03T06:49:44.045Z,21.4
2017-07-03T06:50:24.647Z,21.42
2017-07-03T06:51:05.271Z,21.5
2017-07-03T06:51:45.895Z,21.48
2017-07-03T06:52:26.487Z,21.46
2017-07-03T06:53:07.091Z,21.73
2017-07-03T06:53:47.699Z,21.7
2017-07-03T06:54:28.294Z,21.82
2017-07-03T06:55:08.870Z,21.85
2017-07-03T06:55:49.758Z,21.85
2017-07-03T06:56:30.342Z,21.85
2017-07-03T06:57:16.345Z,21.89
2017-07-03T06:57:57.079Z,21.93
2017-07-03T06:58:37.758Z,21.93
2017-07-03T06:59:18.979Z,21.88
2017-07-03T06:59:59.638Z,21.76
2017-07-03T07:00:40.292Z,21.7
2017-07-03T07:01:21.144Z,21.61
2017-07-03T07:02:02.236Z,21.66
2017-07-03T07:02:42.871Z,21.57
2017-07-03T07:03:23.976Z,21.58
2017-07-03T07:04:04.637Z,21.61
2017-07-03T07:04:45.579Z,21.6
2017-07-03T07:05:26.353Z,21.61
2017-07-03T07:06:06.941Z,21.75
2017-07-03T07:06:47.535Z,21.83
2017-07-03T07:07:28.148Z,21.77
2017-07-03T07:08:08.793Z,21.95
2017-07-03T07:08:49.450Z,21.99
2017-07-03T07:09:30.104Z,22.02
2017-07-03T07:10:10.722Z,22.11
2017-07-03T07:10:51.322Z,22.18
2017-07-03T07:11:31.921Z,22.17
2017-07-03T07:12:12.521Z,22.28
2017-07-03T07:12:53.160Z,22.29
2017-07-03T07:13:33.844Z,22.3
2017-07-03T07:14:14.394Z,22.48
2017-07-03T07:14:54.995Z,22.43
2017-07-03T07:15:35.830Z,22.54
2017-07-03T07:16:16.438Z,22.51
2017-07-03T07:17:54.156Z,22.44
2017-07-03T07:18:34.821Z,22.36
2017-07-03T07:19:15.405Z,22.38
2017-07-03T07:19:56.127Z,22.39
2017-07-03T07:20:36.735Z,22.41
2017-07-03T07:21:17.315Z,22.44
2017-07-03T07:21:57.918Z,22.5
2017-07-03T07:22:38.510Z,22.41
2017-07-03T07:23:19.113Z,22.43
2017-07-03T07:23:59.800Z,22.3
2017-07-03T07:24:40.412Z,22.36
2017-07-03T07:25:21.110Z,22.26
2017-07-03T07:26:01.760Z,22.26
2017-07-03T07:26:42.425Z,22.26
2017-07-03T07:27:23.001Z,22.35
2017-07-03T07:28:03.615Z,22.41
2017-07-03T07:28:44.232Z,22.47
2017-07-03T07:29:24.844Z,22.45
2017-07-03T07:30:05.416Z,22.41
2017-07-03T07:30:45.995Z,22.29
2017-07-03T07:31:26.597Z,22.39
2017-07-03T07:32:07.226Z,22.26
2017-07-03T07:32:48.241Z,22.28
2017-07-03T07:33:28.532Z,22.26
2017-07-03T07:34:09.339Z,22.38
2017-07-03T07:34:50.022Z,22.26
2017-07-03T07:35:30.817Z,22.3
2017-07-03T07:36:11.399Z,22.38
2017-07-03T07:36:52.044Z,22.39
2017-07-03T07:37:32.652Z,22.45
2017-07-03T07:38:13.298Z,22.39
2017-07-03T07:38:53.988Z,22.33
2017-07-03T07:39:34.721Z,22.33
2017-07-03T07:40:15.340Z,22.36
2017-07-03T07:40:56.088Z,22.29
2017-07-03T07:41:36.700Z,22.36
2017-07-03T07:42:17.302Z,22.36
2017-07-03T07:42:57.902Z,22.3
2017-07-03T07:43:38.493Z,22.33
2017-07-03T07:44:19.107Z,22.41
2017-07-03T07:44:59.724Z,22.33
2017-07-03T07:45:40.301Z,22.26
2017-07-03T07:46:21.010Z,22.3
2017-07-03T07:47:01.561Z,22.18
2017-07-03T07:47:42.145Z,22.13
2017-07-03T07:48:22.757Z,22.07
2017-07-03T07:49:03.349Z,21.99
2017-07-03T07:49:43.959Z,22.11
2017-07-03T07:50:24.624Z,22.14
2017-07-03T07:51:05.206Z,22.25
2017-07-03T07:51:45.760Z,22.2
2017-07-03T07:52:26.457Z,22.29
2017-07-03T07:53:07.043Z,22.36
2017-07-03T07:53:47.614Z,22.23
2017-07-03T07:54:28.190Z,22.36
2017-07-03T07:55:08.800Z,22.38
2017-07-03T07:55:49.387Z,22.48
2017-07-03T07:56:30.006Z,22.41
2017-07-03T07:57:10.606Z,22.41
2017-07-03T07:57:51.169Z,22.36
2017-07-03T07:58:31.808Z,22.33
2017-07-03T07:59:12.378Z,22.36
2017-07-03T07:59:52.953Z,22.33
2017-07-03T08:00:33.574Z,22.35
2017-07-03T08:01:14.163Z,22.18
2017-07-03T08:01:54.752Z,22.25
2017-07-03T08:02:35.333Z,22.35
2017-07-03T08:03:15.897Z,22.22
2017-07-03T08:03:56.576Z,22.11
2017-07-03T08:04:37.186Z,22.02
2017-07-03T08:05:17.834Z,22.07
2017-07-03T08:05:58.457Z,22.06
2017-07-03T08:06:39.062Z,22.08
2017-07-03T08:07:19.655Z,21.99
2017-07-03T08:08:00.235Z,21.91
2017-07-03T08:08:40.838Z,21.88
2017-07-03T08:09:21.423Z,21.62
2017-07-03T08:10:02.006Z,21.6
2017-07-03T08:10:42.589Z,21.61
2017-07-03T08:11:23.193Z,21.58
2017-07-03T08:12:03.830Z,21.67
2017-07-03T08:12:44.410Z,21.48
2017-07-03T08:13:25.015Z,21.61
2017-07-03T08:14:05.612Z,21.58
2017-07-03T08:14:46.356Z,21.64
2017-07-03T08:15:26.947Z,21.54
2017-07-03T08:16:07.528Z,21.67
2017-07-03T08:16:48.109Z,21.76
2017-07-03T08:17:28.683Z,21.8
2017-07-03T08:18:09.267Z,21.7
2017-07-03T08:18:49.839Z,21.76
2017-07-03T08:19:30.437Z,21.7
2017-07-03T08:20:11.031Z,21.73
2017-07-03T08:20:51.590Z,21.75
2017-07-03T08:21:32.188Z,21.66
2017-07-03T08:22:12.758Z,21.54
2017-07-03T08:22:53.350Z,21.67
2017-07-03T08:23:34.137Z,21.72
2017-07-03T08:24:14.769Z,21.75
2017-07-03T08:24:55.360Z,21.69
2017-07-03T08:25:35.940Z,21.64
2017-07-03T08:26:16.571Z,21.66
2017-07-03T08:26:57.131Z,21.69
2017-07-03T08:27:37.723Z,21.69
2017-07-03T08:28:18.290Z,21.64
2017-07-03T08:28:58.868Z,21.6
2017-07-03T08:29:39.434Z,21.45
2017-07-03T08:30:20.029Z,21.45
2017-07-03T08:31:00.630Z,21.36
2017-07-03T08:31:41.181Z,21.42
2017-07-03T08:32:21.777Z,21.32
2017-07-03T08:33:02.390Z,21.33
2017-07-03T08:33:42.981Z,21.39
2017-07-03T08:34:23.904Z,21.45
2017-07-03T08:35:05.656Z,21.43
2017-07-03T08:35:46.714Z,21.46
2017-07-03T08:36:27.549Z,21.46
2017-07-03T08:37:08.238Z,21.4
2017-07-03T08:37:48.812Z,21.52
2017-07-03T08:38:29.438Z,21.52
2017-07-03T08:39:10.032Z,21.5
2017-07-03T08:39:50.607Z,21.42
2017-07-03T08:40:31.204Z,21.58
2017-07-03T08:41:11.812Z,21.52
2017-07-03T08:41:52.401Z,21.51
2017-07-03T08:42:32.996Z,21.66
2017-07-03T08:43:13.557Z,21.69
2017-07-03T08:43:54.161Z,21.69
2017-07-03T08:44:34.737Z,21.77
2017-07-03T08:45:15.335Z,21.7
2017-07-03T08:45:55.934Z,21.73